Wicklow, Ireland
Current Conditions -  °F | °C
As of 12:00 AM on Friday 28 Nov 2014 (Local Time) from EIME Reporting Station
Broken Clouds Broken Clouds  
Wind Chill: 43°   Ceiling: 1500
Heat Index: 48°   Visibility: 6mi
Dew Point: 45°   Wind: 12mph
Humidity: 87%   Direction: 100°E
Pressure: 29.47"   Gusts: NA
Location:  52.99°N, 6.05°W
Report Text: EIME 280000Z 10010KT 9999 BKN015 09/07 Q0998
Loading
Personal Weather Stations






























Interactive Weather Map New forecast layout! Learn more

10-Day Weather Forecast

Advertisements
Track Severe Weather on mobile